sensor_id;sensor_type;location;lat;lon;timestamp;temperature;humidity
33109;HTU21D;19481;51.118;6.940;2023-06-14T00:03:53;18.42;32.31
33109;HTU21D;19481;51.118;6.940;2023-06-14T00:08:56;18.33;32.44
33109;HTU21D;19481;51.118;6.940;2023-06-14T00:13:59;18.14;32.86
33109;HTU21D;19481;51.118;6.940;2023-06-14T00:19:00;17.97;33.18
33109;HTU21D;19481;51.118;6.940;2023-06-14T00:24:04;17.81;33.52
33109;HTU21D;19481;51.118;6.940;2023-06-14T00:29:07;17.80;33.55
33109;HTU21D;19481;51.118;6.940;2023-06-14T00:34:09;17.78;33.54
33109;HTU21D;19481;51.118;6.940;2023-06-14T00:39:11;17.67;33.76
33109;HTU21D;19481;51.118;6.940;2023-06-14T00:44:16;17.68;34.00
33109;HTU21D;19481;51.118;6.940;2023-06-14T00:49:19;17.58;33.91
33109;HTU21D;19481;51.118;6.940;2023-06-14T00:54:20;17.50;34.15
33109;HTU21D;19481;51.118;6.940;2023-06-14T00:59:24;17.32;34.76
33109;HTU21D;19481;51.118;6.940;2023-06-14T01:04:25;17.26;34.63
33109;HTU21D;19481;51.118;6.940;2023-06-14T01:09:32;17.15;35.12
33109;HTU21D;19481;51.118;6.940;2023-06-14T01:14:41;17.05;35.12
33109;HTU21D;19481;51.118;6.940;2023-06-14T01:19:42;16.92;35.34
33109;HTU21D;19481;51.118;6.940;2023-06-14T01:24:46;16.77;35.69
33109;HTU21D;19481;51.118;6.940;2023-06-14T01:29:47;16.61;35.97
33109;HTU21D;19481;51.118;6.940;2023-06-14T01:34:49;16.58;36.03
33109;HTU21D;19481;51.118;6.940;2023-06-14T01:39:52;16.57;36.04
33109;HTU21D;19481;51.118;6.940;2023-06-14T01:44:55;16.44;36.28
33109;HTU21D;19481;51.118;6.940;2023-06-14T01:49:57;16.31;36.59
33109;HTU21D;19481;51.118;6.940;2023-06-14T01:55:00;16.18;36.87
33109;HTU21D;19481;51.118;6.940;2023-06-14T02:00:03;16.15;36.99
33109;HTU21D;19481;51.118;6.940;2023-06-14T02:05:06;16.14;37.18
33109;HTU21D;19481;51.118;6.940;2023-06-14T02:10:10;15.99;37.66
33109;HTU21D;19481;51.118;6.940;2023-06-14T02:15:12;15.92;37.90
33109;HTU21D;19481;51.118;6.940;2023-06-14T02:20:17;15.81;38.30
33109;HTU21D;19481;51.118;6.940;2023-06-14T02:25:20;15.76;38.47
33109;HTU21D;19481;51.118;6.940;2023-06-14T02:30:21;15.68;38.68
33109;HTU21D;19481;51.118;6.940;2023-06-14T02:35:23;15.66;38.85
33109;HTU21D;19481;51.118;6.940;2023-06-14T02:40:28;15.57;39.07
33109;HTU21D;19481;51.118;6.940;2023-06-14T02:45:29;15.45;39.35
33109;HTU21D;19481;51.118;6.940;2023-06-14T02:50:31;15.41;39.57
33109;HTU21D;19481;51.118;6.940;2023-06-14T02:55:34;15.34;39.78
33109;HTU21D;19481;51.118;6.940;2023-06-14T03:00:40;15.37;39.33
33109;HTU21D;19481;51.118;6.940;2023-06-14T03:05:44;15.24;39.59
33109;HTU21D;19481;51.118;6.940;2023-06-14T03:10:49;15.15;39.88
33109;HTU21D;19481;51.118;6.940;2023-06-14T03:15:50;15.06;40.20
33109;HTU21D;19481;51.118;6.940;2023-06-14T03:20:52;14.97;40.46
33109;HTU21D;19481;51.118;6.940;2023-06-14T03:25:55;14.98;40.52
33109;HTU21D;19481;51.118;6.940;2023-06-14T03:30:57;14.96;40.60
33109;HTU21D;19481;51.118;6.940;2023-06-14T03:35:58;14.88;40.99
33109;HTU21D;19481;51.118;6.940;2023-06-14T03:41:01;14.83;41.23
33109;HTU21D;19481;51.118;6.940;2023-06-14T03:46:03;14.93;41.12
33109;HTU21D;19481;51.118;6.940;2023-06-14T03:51:05;14.88;41.26
33109;HTU21D;19481;51.118;6.940;2023-06-14T03:56:08;14.82;41.65
33109;HTU21D;19481;51.118;6.940;2023-06-14T04:01:09;14.86;41.62
33109;HTU21D;19481;51.118;6.940;2023-06-14T04:06:12;14.98;41.38
33109;HTU21D;19481;51.118;6.940;2023-06-14T04:11:20;15.03;41.33
33109;HTU21D;19481;51.118;6.940;2023-06-14T04:16:23;15.12;41.30
33109;HTU21D;19481;51.118;6.940;2023-06-14T04:21:25;15.22;41.20
33109;HTU21D;19481;51.118;6.940;2023-06-14T04:26:30;15.37;41.15
33109;HTU21D;19481;51.118;6.940;2023-06-14T04:31:34;15.63;40.83
33109;HTU21D;19481;51.118;6.940;2023-06-14T04:36:37;16.19;39.98
33109;HTU21D;19481;51.118;6.940;2023-06-14T04:41:40;16.75;39.55
33109;HTU21D;19481;51.118;6.940;2023-06-14T04:46:42;17.96;37.66
33109;HTU21D;19481;51.118;6.940;2023-06-14T04:51:46;20.20;33.54
33109;HTU21D;19481;51.118;6.940;2023-06-14T04:56:52;21.32;32.13
33109;HTU21D;19481;51.118;6.940;2023-06-14T05:01:55;22.34;30.96
33109;HTU21D;19481;51.118;6.940;2023-06-14T05:06:57;23.32;30.06
33109;HTU21D;19481;51.118;6.940;2023-06-14T05:12:00;23.84;30.53
33109;HTU21D;19481;51.118;6.940;2023-06-14T05:17:01;24.06;31.22
33109;HTU21D;19481;51.118;6.940;2023-06-14T05:22:04;22.26;35.19
33109;HTU21D;19481;51.118;6.940;2023-06-14T05:27:07;23.25;33.69
33109;HTU21D;19481;51.118;6.940;2023-06-14T05:32:08;24.35;31.75
33109;HTU21D;19481;51.118;6.940;2023-06-14T05:37:10;25.73;29.69
33109;HTU21D;19481;51.118;6.940;2023-06-14T05:42:13;26.68;28.72
33109;HTU21D;19481;51.118;6.940;2023-06-14T05:47:14;27.39;28.35
33109;HTU21D;19481;51.118;6.940;2023-06-14T05:52:16;27.25;28.97
33109;HTU21D;19481;51.118;6.940;2023-06-14T05:57:19;26.37;30.45
33109;HTU21D;19481;51.118;6.940;2023-06-14T06:02:21;26.34;30.22
33109;HTU21D;19481;51.118;6.940;2023-06-14T06:07:22;27.25;28.53
33109;HTU21D;19481;51.118;6.940;2023-06-14T06:12:25;26.85;29.04
33109;HTU21D;19481;51.118;6.940;2023-06-14T06:17:27;27.85;26.98
33109;HTU21D;19481;51.118;6.940;2023-06-14T06:22:29;27.00;28.71
33109;HTU21D;19481;51.118;6.940;2023-06-14T06:27:32;27.30;26.73
33109;HTU21D;19481;51.118;6.940;2023-06-14T06:32:33;26.46;28.90
33109;HTU21D;19481;51.118;6.940;2023-06-14T06:37:35;26.94;27.65
33109;HTU21D;19481;51.118;6.940;2023-06-14T06:42:38;26.95;27.15
33109;HTU21D;19481;51.118;6.940;2023-06-14T06:47:39;26.62;27.69
33109;HTU21D;19481;51.118;6.940;2023-06-14T06:52:41;27.10;26.93
33109;HTU21D;19481;51.118;6.940;2023-06-14T06:57:44;27.74;26.03
33109;HTU21D;19481;51.118;6.940;2023-06-14T07:02:45;27.46;26.68
33109;HTU21D;19481;51.118;6.940;2023-06-14T07:07:47;26.92;27.41
33109;HTU21D;19481;51.118;6.940;2023-06-14T07:12:50;26.95;24.17
33109;HTU21D;19481;51.118;6.940;2023-06-14T07:17:51;26.53;26.21
33109;HTU21D;19481;51.118;6.940;2023-06-14T07:22:53;27.41;24.84
33109;HTU21D;19481;51.118;6.940;2023-06-14T07:27:56;27.66;23.85
33109;HTU21D;19481;51.118;6.940;2023-06-14T07:32:58;28.03;22.04
33109;HTU21D;19481;51.118;6.940;2023-06-14T07:37:59;27.90;23.03
33109;HTU21D;19481;51.118;6.940;2023-06-14T07:43:02;28.29;22.31
33109;HTU21D;19481;51.118;6.940;2023-06-14T07:48:04;29.04;22.39
33109;HTU21D;19481;51.118;6.940;2023-06-14T07:53:06;29.16;22.47
33109;HTU21D;19481;51.118;6.940;2023-06-14T07:58:09;29.31;18.21
33109;HTU21D;19481;51.118;6.940;2023-06-14T08:03:11;29.14;22.27
33109;HTU21D;19481;51.118;6.940;2023-06-14T08:08:13;29.63;21.63
33109;HTU21D;19481;51.118;6.940;2023-06-14T08:13:16;29.59;20.03
33109;HTU21D;19481;51.118;6.940;2023-06-14T08:18:17;29.07;22.11
33109;HTU21D;19481;51.118;6.940;2023-06-14T08:23:19;29.52;21.15
33109;HTU21D;19481;51.118;6.940;2023-06-14T08:28:24;29.71;20.19
33109;HTU21D;19481;51.118;6.940;2023-06-14T08:33:25;29.37;21.08
33109;HTU21D;19481;51.118;6.940;2023-06-14T08:38:27;29.61;20.44
33109;HTU21D;19481;51.118;6.940;2023-06-14T08:43:30;29.91;17.94
33109;HTU21D;19481;51.118;6.940;2023-06-14T08:48:31;30.46;19.74
33109;HTU21D;19481;51.118;6.940;2023-06-14T08:53:36;30.67;19.56
33109;HTU21D;19481;51.118;6.940;2023-06-14T08:58:44;29.79;20.54
33109;HTU21D;19481;51.118;6.940;2023-06-14T09:03:46;29.30;21.24
33109;HTU21D;19481;51.118;6.940;2023-06-14T09:08:48;29.86;20.11
33109;HTU21D;19481;51.118;6.940;2023-06-14T09:13:52;29.41;20.44
33109;HTU21D;19481;51.118;6.940;2023-06-14T09:18:53;29.96;19.79
33109;HTU21D;19481;51.118;6.940;2023-06-14T09:23:55;29.51;20.62
33109;HTU21D;19481;51.118;6.940;2023-06-14T09:28:58;29.46;19.67
33109;HTU21D;19481;51.118;6.940;2023-06-14T09:34:02;29.32;20.14
33109;HTU21D;19481;51.118;6.940;2023-06-14T09:39:03;28.84;21.12
33109;HTU21D;19481;51.118;6.940;2023-06-14T09:44:08;28.99;18.90
33109;HTU21D;19481;51.118;6.940;2023-06-14T09:49:10;28.80;20.63
33109;HTU21D;19481;51.118;6.940;2023-06-14T09:54:15;28.38;20.84
33109;HTU21D;19481;51.118;6.940;2023-06-14T09:59:21;28.52;20.58
33109;HTU21D;19481;51.118;6.940;2023-06-14T10:04:30;28.99;20.46
33109;HTU21D;19481;51.118;6.940;2023-06-14T10:09:33;29.04;20.77
33109;HTU21D;19481;51.118;6.940;2023-06-14T10:14:37;29.09;20.89
33109;HTU21D;19481;51.118;6.940;2023-06-14T10:19:42;28.67;21.63
33109;HTU21D;19481;51.118;6.940;2023-06-14T10:24:45;28.94;21.08
33109;HTU21D;19481;51.118;6.940;2023-06-14T10:30:07;28.71;20.02
33109;HTU21D;19481;51.118;6.940;2023-06-14T10:35:16;28.43;21.06
33109;HTU21D;19481;51.118;6.940;2023-06-14T10:40:30;28.87;21.37
33109;HTU21D;19481;51.118;6.940;2023-06-14T10:45:33;28.76;20.81
33109;HTU21D;19481;51.118;6.940;2023-06-14T10:50:35;28.25;21.70
33109;HTU21D;19481;51.118;6.940;2023-06-14T10:55:37;27.70;22.17
33109;HTU21D;19481;51.118;6.940;2023-06-14T11:00:44;28.00;20.90
33109;HTU21D;19481;51.118;6.940;2023-06-14T11:05:51;28.09;21.53
33109;HTU21D;19481;51.118;6.940;2023-06-14T11:10:54;28.08;20.96
33109;HTU21D;19481;51.118;6.940;2023-06-14T11:16:01;28.54;20.60
33109;HTU21D;19481;51.118;6.940;2023-06-14T11:21:03;28.69;20.54
33109;HTU21D;19481;51.118;6.940;2023-06-14T11:26:04;28.57;20.70
33109;HTU21D;19481;51.118;6.940;2023-06-14T11:31:08;29.04;20.12
33109;HTU21D;19481;51.118;6.940;2023-06-14T11:36:10;28.80;20.45
33109;HTU21D;19481;51.118;6.940;2023-06-14T11:41:12;28.85;20.33
33109;HTU21D;19481;51.118;6.940;2023-06-14T11:46:15;28.65;20.36
33109;HTU21D;19481;51.118;6.940;2023-06-14T11:51:19;28.78;19.79
33109;HTU21D;19481;51.118;6.940;2023-06-14T11:56:21;28.64;19.78
33109;HTU21D;19481;51.118;6.940;2023-06-14T12:01:24;28.48;19.61
33109;HTU21D;19481;51.118;6.940;2023-06-14T12:06:26;28.82;19.04
33109;HTU21D;19481;51.118;6.940;2023-06-14T12:11:33;29.27;17.70
33109;HTU21D;19481;51.118;6.940;2023-06-14T12:16:38;28.90;17.99
33109;HTU21D;19481;51.118;6.940;2023-06-14T12:21:41;28.71;18.86
33109;HTU21D;19481;51.118;6.940;2023-06-14T12:26:43;28.60;19.16
33109;HTU21D;19481;51.118;6.940;2023-06-14T12:31:46;28.57;19.08
33109;HTU21D;19481;51.118;6.940;2023-06-14T12:36:48;28.83;18.88
33109;HTU21D;19481;51.118;6.940;2023-06-14T12:41:51;28.69;19.12
33109;HTU21D;19481;51.118;6.940;2023-06-14T12:46:54;29.01;18.61
33109;HTU21D;19481;51.118;6.940;2023-06-14T12:51:56;29.35;18.64
33109;HTU21D;19481;51.118;6.940;2023-06-14T12:56:57;29.17;19.18
33109;HTU21D;19481;51.118;6.940;2023-06-14T13:02:10;29.03;16.53
33109;HTU21D;19481;51.118;6.940;2023-06-14T13:07:12;28.79;19.51
33109;HTU21D;19481;51.118;6.940;2023-06-14T13:12:15;28.93;19.09
33109;HTU21D;19481;51.118;6.940;2023-06-14T13:17:18;28.71;19.32
33109;HTU21D;19481;51.118;6.940;2023-06-14T13:22:20;29.13;18.57
33109;HTU21D;19481;51.118;6.940;2023-06-14T13:27:22;28.59;19.41
33109;HTU21D;19481;51.118;6.940;2023-06-14T13:32:26;28.33;19.26
33109;HTU21D;19481;51.118;6.940;2023-06-14T13:37:27;28.13;19.35
33109;HTU21D;19481;51.118;6.940;2023-06-14T13:42:29;28.80;18.42
33109;HTU21D;19481;51.118;6.940;2023-06-14T13:47:33;28.02;19.49
33109;HTU21D;19481;51.118;6.940;2023-06-14T13:52:35;27.04;20.60
33109;HTU21D;19481;51.118;6.940;2023-06-14T13:57:37;26.65;20.29
33109;HTU21D;19481;51.118;6.940;2023-06-14T14:02:40;27.50;19.13
33109;HTU21D;19481;51.118;6.940;2023-06-14T14:07:41;28.03;18.41
33109;HTU21D;19481;51.118;6.940;2023-06-14T14:12:43;28.19;18.43
33109;HTU21D;19481;51.118;6.940;2023-06-14T14:17:47;27.35;19.30
33109;HTU21D;19481;51.118;6.940;2023-06-14T14:22:48;27.88;18.81
33109;HTU21D;19481;51.118;6.940;2023-06-14T14:27:50;27.58;19.02
33109;HTU21D;19481;51.118;6.940;2023-06-14T14:32:53;28.03;18.37
33109;HTU21D;19481;51.118;6.940;2023-06-14T14:37:55;27.69;18.93
33109;HTU21D;19481;51.118;6.940;2023-06-14T14:42:56;27.45;19.23
33109;HTU21D;19481;51.118;6.940;2023-06-14T14:48:00;27.38;18.80
33109;HTU21D;19481;51.118;6.940;2023-06-14T14:53:02;27.36;18.97
33109;HTU21D;19481;51.118;6.940;2023-06-14T14:58:04;27.15;19.35
33109;HTU21D;19481;51.118;6.940;2023-06-14T15:03:08;26.94;19.49
33109;HTU21D;19481;51.118;6.940;2023-06-14T15:08:10;27.08;19.16
33109;HTU21D;19481;51.118;6.940;2023-06-14T15:13:11;27.01;19.27
33109;HTU21D;19481;51.118;6.940;2023-06-14T15:18:14;26.97;19.38
33109;HTU21D;19481;51.118;6.940;2023-06-14T15:23:17;27.00;19.45
33109;HTU21D;19481;51.118;6.940;2023-06-14T15:28:20;26.18;20.50
33109;HTU21D;19481;51.118;6.940;2023-06-14T15:33:24;26.33;19.96
33109;HTU21D;19481;51.118;6.940;2023-06-14T15:38:25;26.56;19.73
33109;HTU21D;19481;51.118;6.940;2023-06-14T15:43:27;26.82;19.38
33109;HTU21D;19481;51.118;6.940;2023-06-14T15:48:30;26.73;19.52
33109;HTU21D;19481;51.118;6.940;2023-06-14T15:53:32;26.61;19.71
33109;HTU21D;19481;51.118;6.940;2023-06-14T15:58:34;26.37;20.04
33109;HTU21D;19481;51.118;6.940;2023-06-14T16:03:37;26.26;20.13
33109;HTU21D;19481;51.118;6.940;2023-06-14T16:08:39;26.33;19.87
33109;HTU21D;19481;51.118;6.940;2023-06-14T16:13:41;26.22;19.98
33109;HTU21D;19481;51.118;6.940;2023-06-14T16:18:44;25.96;20.36
33109;HTU21D;19481;51.118;6.940;2023-06-14T16:23:46;26.32;19.91
33109;HTU21D;19481;51.118;6.940;2023-06-14T16:28:47;26.34;20.02
33109;HTU21D;19481;51.118;6.940;2023-06-14T16:33:50;26.34;19.87
33109;HTU21D;19481;51.118;6.940;2023-06-14T16:38:54;26.33;19.92
33109;HTU21D;19481;51.118;6.940;2023-06-14T16:43:57;25.86;20.51
33109;HTU21D;19481;51.118;6.940;2023-06-14T16:49:01;25.60;20.89
33109;HTU21D;19481;51.118;6.940;2023-06-14T16:54:03;25.68;20.57
33109;HTU21D;19481;51.118;6.940;2023-06-14T16:59:04;25.78;20.48
33109;HTU21D;19481;51.118;6.940;2023-06-14T17:04:08;25.78;20.56
33109;HTU21D;19481;51.118;6.940;2023-06-14T17:09:09;25.58;20.86
33109;HTU21D;19481;51.118;6.940;2023-06-14T17:14:13;25.53;20.85
33109;HTU21D;19481;51.118;6.940;2023-06-14T17:19:16;25.30;21.05
33109;HTU21D;19481;51.118;6.940;2023-06-14T17:30:03;25.18;21.20
33109;HTU21D;19481;51.118;6.940;2023-06-14T17:35:07;25.13;21.30
33109;HTU21D;19481;51.118;6.940;2023-06-14T17:40:09;25.14;21.26
33109;HTU21D;19481;51.118;6.940;2023-06-14T17:45:10;25.20;21.17
33109;HTU21D;19481;51.118;6.940;2023-06-14T17:50:13;25.03;21.55
33109;HTU21D;19481;51.118;6.940;2023-06-14T17:55:15;24.76;21.81
33109;HTU21D;19481;51.118;6.940;2023-06-14T18:00:17;24.58;21.96
33109;HTU21D;19481;51.118;6.940;2023-06-14T18:05:20;24.53;22.04
33109;HTU21D;19481;51.118;6.940;2023-06-14T18:10:22;24.45;22.08
33109;HTU21D;19481;51.118;6.940;2023-06-14T18:15:24;24.46;22.03
33109;HTU21D;19481;51.118;6.940;2023-06-14T18:20:27;24.42;22.18
33109;HTU21D;19481;51.118;6.940;2023-06-14T18:25:29;24.41;22.12
33109;HTU21D;19481;51.118;6.940;2023-06-14T18:30:31;24.27;22.29
33109;HTU21D;19481;51.118;6.940;2023-06-14T18:35:34;24.17;22.79
33109;HTU21D;19481;51.118;6.940;2023-06-14T18:40:35;24.06;22.63
33109;HTU21D;19481;51.118;6.940;2023-06-14T18:45:37;23.98;22.74
33109;HTU21D;19481;51.118;6.940;2023-06-14T18:50:40;23.89;22.88
33109;HTU21D;19481;51.118;6.940;2023-06-14T18:55:41;23.80;22.98
33109;HTU21D;19481;51.118;6.940;2023-06-14T19:00:45;23.69;23.27
33109;HTU21D;19481;51.118;6.940;2023-06-14T19:05:48;23.60;23.36
33109;HTU21D;19481;51.118;6.940;2023-06-14T19:10:51;23.41;23.64
33109;HTU21D;19481;51.118;6.940;2023-06-14T19:15:52;23.34;23.86
33109;HTU21D;19481;51.118;6.940;2023-06-14T19:20:56;23.20;24.19
33109;HTU21D;19481;51.118;6.940;2023-06-14T19:25:58;23.03;24.47
33109;HTU21D;19481;51.118;6.940;2023-06-14T19:30:59;22.95;24.65
33109;HTU21D;19481;51.118;6.940;2023-06-14T19:36:02;22.78;25.14
33109;HTU21D;19481;51.118;6.940;2023-06-14T19:41:04;22.65;25.22
33109;HTU21D;19481;51.118;6.940;2023-06-14T19:46:06;22.46;25.62
33109;HTU21D;19481;51.118;6.940;2023-06-14T19:51:08;22.28;26.04
33109;HTU21D;19481;51.118;6.940;2023-06-14T19:56:10;22.16;26.19
33109;HTU21D;19481;51.118;6.940;2023-06-14T20:01:12;22.05;26.34
33109;HTU21D;19481;51.118;6.940;2023-06-14T20:06:15;22.06;26.37
33109;HTU21D;19481;51.118;6.940;2023-06-14T20:11:17;21.93;26.57
33109;HTU21D;19481;51.118;6.940;2023-06-14T20:16:18;21.79;26.84
33109;HTU21D;19481;51.118;6.940;2023-06-14T20:21:21;21.69;27.04
33109;HTU21D;19481;51.118;6.940;2023-06-14T20:26:23;21.60;27.13
33109;HTU21D;19481;51.118;6.940;2023-06-14T20:31:25;21.38;27.53
33109;HTU21D;19481;51.118;6.940;2023-06-14T20:36:28;21.24;27.85
33109;HTU21D;19481;51.118;6.940;2023-06-14T20:41:30;21.05;28.10
33109;HTU21D;19481;51.118;6.940;2023-06-14T20:46:31;20.92;28.37
33109;HTU21D;19481;51.118;6.940;2023-06-14T20:51:37;20.80;28.61
33109;HTU21D;19481;51.118;6.940;2023-06-14T20:56:38;20.60;28.93
33109;HTU21D;19481;51.118;6.940;2023-06-14T21:01:40;20.56;29.00
33109;HTU21D;19481;51.118;6.940;2023-06-14T21:06:44;20.41;29.41
33109;HTU21D;19481;51.118;6.940;2023-06-14T21:11:45;20.15;29.81
33109;HTU21D;19481;51.118;6.940;2023-06-14T21:16:47;19.94;30.28
33109;HTU21D;19481;51.118;6.940;2023-06-14T21:21:52;19.80;30.63
33109;HTU21D;19481;51.118;6.940;2023-06-14T21:26:54;19.63;30.90
33109;HTU21D;19481;51.118;6.940;2023-06-14T21:31:55;19.52;31.20
33109;HTU21D;19481;51.118;6.940;2023-06-14T21:36:58;19.39;31.53
33109;HTU21D;19481;51.118;6.940;2023-06-14T21:42:00;19.36;31.54
33109;HTU21D;19481;51.118;6.940;2023-06-14T21:47:01;19.45;31.24
33109;HTU21D;19481;51.118;6.940;2023-06-14T21:52:05;19.52;31.42
33109;HTU21D;19481;51.118;6.940;2023-06-14T21:57:07;19.47;31.38
33109;HTU21D;19481;51.118;6.940;2023-06-14T22:02:08;19.44;31.48
33109;HTU21D;19481;51.118;6.940;2023-06-14T22:07:12;19.28;31.93
33109;HTU21D;19481;51.118;6.940;2023-06-14T22:12:15;19.31;31.85
33109;HTU21D;19481;51.118;6.940;2023-06-14T22:17:17;19.35;31.83
33109;HTU21D;19481;51.118;6.940;2023-06-14T22:22:24;19.21;32.27
33109;HTU21D;19481;51.118;6.940;2023-06-14T22:27:25;19.15;32.38
33109;HTU21D;19481;51.118;6.940;2023-06-14T22:32:28;19.11;32.51
33109;HTU21D;19481;51.118;6.940;2023-06-14T22:37:34;19.14;32.55
33109;HTU21D;19481;51.118;6.940;2023-06-14T22:42:39;18.80;33.28
33109;HTU21D;19481;51.118;6.940;2023-06-14T22:47:46;18.77;33.28
33109;HTU21D;19481;51.118;6.940;2023-06-14T22:52:48;18.84;33.20
33109;HTU21D;19481;51.118;6.940;2023-06-14T22:57:50;18.78;33.38
33109;HTU21D;19481;51.118;6.940;2023-06-14T23:02:52;18.77;33.41
33109;HTU21D;19481;51.118;6.940;2023-06-14T23:07:55;18.71;33.67
33109;HTU21D;19481;51.118;6.940;2023-06-14T23:12:56;18.59;33.88
33109;HTU21D;19481;51.118;6.940;2023-06-14T23:18:00;18.49;34.21
33109;HTU21D;19481;51.118;6.940;2023-06-14T23:23:02;18.44;34.35
33109;HTU21D;19481;51.118;6.940;2023-06-14T23:28:04;18.38;34.46
33109;HTU21D;19481;51.118;6.940;2023-06-14T23:33:07;18.23;34.80
33109;HTU21D;19481;51.118;6.940;2023-06-14T23:38:10;18.26;34.83
33109;HTU21D;19481;51.118;6.940;2023-06-14T23:43:12;18.15;35.06
33109;HTU21D;19481;51.118;6.940;2023-06-14T23:48:14;17.98;35.40
33109;HTU21D;19481;51.118;6.940;2023-06-14T23:53:17;17.95;35.54
33109;HTU21D;19481;51.118;6.940;2023-06-14T23:58:21;17.93;35.66
